Time;durP1;ratioP1;P1;durP2;ratioP2;P2;SDS_P1;SDS_P2;PMS_P1;PMS_P2;Temp;Humidity;BMP_temperature;BMP_pressure;BME280_temperature;BME280_humidity;BME280_pressure;Samples;Min_cycle;Max_cycle;Signal;HPM_P1;HPM_P2
2023/03/05 00:01:12;;;;;;;46.00;15.88;;;;;;;-1.56;100.00;94096.38;5043749;28;20406;-60
2023/03/05 00:03:40;;;;;;;40.88;14.80;;;;;;;-1.53;100.00;94097.63;5030429;28;20068;-60
2023/03/05 00:06:07;;;;;;;39.33;14.82;;;;;;;-1.53;100.00;94098.44;5012837;28;20041;-60
2023/03/05 00:08:34;;;;;;;38.87;15.10;;;;;;;-1.66;100.00;94092.22;5020263;28;20083;-60
2023/03/05 00:11:03;;;;;;;45.17;15.57;;;;;;;-1.72;100.00;94093.56;5029336;28;20041;-60
2023/03/05 00:13:31;;;;;;;46.55;17.33;;;;;;;-1.70;100.00;94096.69;5022219;28;20080;-60
2023/03/05 00:15:57;;;;;;;45.47;16.38;;;;;;;-1.68;100.00;94086.38;5029473;28;20391;-60
2023/03/05 00:18:24;;;;;;;48.03;17.00;;;;;;;-1.67;100.00;94089.84;5030276;28;20048;-60
2023/03/05 00:20:51;;;;;;;50.13;16.97;;;;;;;-1.82;100.00;94093.97;5028389;28;20107;-60
2023/03/05 00:23:17;;;;;;;49.22;16.77;;;;;;;-1.81;100.00;94087.50;5030242;28;20076;-59
2023/03/05 00:25:45;;;;;;;52.88;18.23;;;;;;;-1.83;100.00;94081.66;5029719;28;20044;-61
2023/03/05 00:28:12;;;;;;;47.15;16.73;;;;;;;-1.88;100.00;94082.63;5030202;28;20041;-61
2023/03/05 00:30:39;;;;;;;47.58;16.45;;;;;;;-1.96;100.00;94080.03;5028287;28;20049;-60
2023/03/05 00:33:06;;;;;;;45.07;15.67;;;;;;;-2.04;100.00;94082.47;5030045;28;20044;-59
2023/03/05 00:35:45;;;;;;;42.15;14.73;;;;;;;-2.14;100.00;94074.06;5029707;28;20513;-58
2023/03/05 00:38:12;;;;;;;40.22;12.90;;;;;;;-2.17;100.00;94070.13;5017630;28;20038;-59
2023/03/05 00:40:40;;;;;;;36.13;13.20;;;;;;;-2.23;100.00;94079.50;5029734;28;20049;-59
2023/03/05 00:43:08;;;;;;;34.72;12.52;;;;;;;-2.28;100.00;94072.41;5030099;28;20099;-60
2023/03/05 00:45:35;;;;;;;36.60;11.87;;;;;;;-2.35;100.00;94069.50;5029599;28;20406;-60
2023/03/05 00:48:02;;;;;;;33.67;11.18;;;;;;;-2.42;100.00;94064.63;5029632;28;20049;-60
2023/03/05 00:50:29;;;;;;;32.55;11.65;;;;;;;-2.44;100.00;94066.09;5030196;28;20071;-61
2023/03/05 00:52:56;;;;;;;37.95;12.38;;;;;;;-2.53;100.00;94065.38;5029460;28;20052;-60
2023/03/05 00:55:22;;;;;;;35.22;11.05;;;;;;;-2.56;100.00;94066.81;5029769;28;20462;-59
2023/03/05 00:57:49;;;;;;;33.13;11.43;;;;;;;-2.68;100.00;94056.78;5029571;28;20387;-59
2023/03/05 01:00:16;;;;;;;35.65;11.75;;;;;;;-2.70;100.00;94053.63;5042752;28;20417;-60
2023/03/05 01:02:43;;;;;;;33.95;12.02;;;;;;;-2.71;100.00;94048.63;5028090;28;20079;-59
2023/03/05 01:05:12;;;;;;;34.00;11.05;;;;;;;-2.78;100.00;94051.03;5041700;28;20068;-60
2023/03/05 01:07:39;;;;;;;35.55;11.75;;;;;;;-2.84;100.00;94045.06;5029180;28;20446;-60
2023/03/05 01:10:06;;;;;;;34.20;10.97;;;;;;;-2.87;100.00;94037.69;5029575;28;20080;-61
2023/03/05 01:12:33;;;;;;;32.30;11.43;;;;;;;-2.91;100.00;94040.22;5029458;28;20041;-57
2023/03/05 01:14:59;;;;;;;34.85;11.73;;;;;;;-2.93;100.00;94042.44;5028177;28;20468;-59
2023/03/05 01:17:26;;;;;;;30.65;11.02;;;;;;;-2.97;100.00;94043.44;5018389;28;20110;-59
2023/03/05 01:19:53;;;;;;;34.65;11.05;;;;;;;-3.09;100.00;94042.25;5029124;28;20045;-59
2023/03/05 01:22:19;;;;;;;34.60;11.50;;;;;;;-3.12;100.00;94040.22;5033783;28;20071;-60
2023/03/05 01:24:46;;;;;;;32.90;11.13;;;;;;;-3.10;100.00;94038.00;5033399;28;20037;-60
2023/03/05 01:27:13;;;;;;;33.75;11.70;;;;;;;-3.11;100.00;94035.63;5032250;28;20053;-59
2023/03/05 01:29:39;;;;;;;31.70;11.10;;;;;;;-3.12;100.00;94029.47;5032841;28;20057;-59
2023/03/05 01:32:06;;;;;;;38.13;11.88;;;;;;;-3.16;100.00;94035.81;5032115;28;20047;-59
2023/03/05 01:34:36;;;;;;;36.00;11.80;;;;;;;-3.25;100.00;94035.88;5031846;28;20041;-60
2023/03/05 01:37:02;;;;;;;35.80;11.95;;;;;;;-3.29;100.00;94018.84;5033544;28;20044;-60
2023/03/05 01:39:29;;;;;;;34.50;11.57;;;;;;;-3.26;100.00;94021.66;5033559;28;20047;-60
2023/03/05 01:41:56;;;;;;;39.60;11.70;;;;;;;-3.18;100.00;94021.94;5032758;28;20045;-58
2023/03/05 01:44:28;;;;;;;41.50;14.15;;;;;;;-3.18;100.00;94024.63;5033451;28;20052;-59
2023/03/05 01:46:55;;;;;;;52.20;19.03;;;;;;;-3.21;100.00;94024.16;5032715;28;20041;-58
2023/03/05 01:49:26;;;;;;;41.60;13.48;;;;;;;-3.24;100.00;94021.31;5033166;28;20045;-59
2023/03/05 01:52:10;;;;;;;31.30;11.50;;;;;;;-3.21;100.00;94021.47;5032792;28;20107;-58
2023/03/05 01:54:42;;;;;;;32.20;10.70;;;;;;;-3.24;100.00;94014.09;5032540;28;20041;-58
2023/03/05 01:57:15;;;;;;;30.60;10.30;;;;;;;-3.27;100.00;94013.94;5033158;28;20046;-59
2023/03/05 01:59:47;;;;;;;28.67;9.70;;;;;;;-3.31;100.00;94013.03;5032372;28;20049;-58
2023/03/05 02:02:15;;;;;;;35.45;12.68;;;;;;;-3.32;100.00;93998.81;5031602;28;20049;-60
2023/03/05 02:04:47;;;;;;;40.15;13.02;;;;;;;-3.33;100.00;94002.59;5032677;28;20033;-60
2023/03/05 02:07:15;;;;;;;40.75;12.30;;;;;;;-3.33;100.00;94002.59;5032815;28;20076;-58
2023/03/05 02:09:42;;;;;;;31.23;11.57;;;;;;;-3.31;100.00;93994.25;5032226;28;20041;-59
2023/03/05 02:12:11;;;;;;;45.73;14.53;;;;;;;-3.32;100.00;93988.09;5032799;28;20054;-59
2023/03/05 02:14:41;;;;;;;30.02;10.50;;;;;;;-3.44;100.00;93994.16;5031980;28;20170;-60
2023/03/05 02:17:09;;;;;;;29.90;10.70;;;;;;;-3.41;100.00;93992.72;5041045;28;20445;-59
2023/03/05 02:19:50;;;;;;;27.83;11.38;;;;;;;-3.37;100.00;93985.59;5032395;28;20053;-60
2023/03/05 02:22:18;;;;;;;32.30;10.70;;;;;;;-3.33;100.00;93985.72;5032627;28;20051;-58
2023/03/05 02:24:45;;;;;;;30.17;11.00;;;;;;;-3.32;100.00;93982.72;5031957;28;20045;-59
2023/03/05 02:27:13;;;;;;;36.00;11.18;;;;;;;-3.30;100.00;93982.38;5032610;28;20380;-59
2023/03/05 02:29:44;;;;;;;32.97;12.60;;;;;;;-3.29;100.00;93987.44;5031496;28;20414;-61
2023/03/05 02:32:11;;;;;;;34.80;12.50;;;;;;;-3.30;100.00;93982.38;5032101;28;20053;-58
2023/03/05 02:34:38;;;;;;;40.65;13.85;;;;;;;-3.29;100.00;93975.91;5031886;28;20064;-59
2023/03/05 02:37:07;;;;;;;39.00;13.50;;;;;;;-3.34;100.00;93978.78;5032295;28;20128;-60
2023/03/05 02:39:34;;;;;;;49.53;16.88;;;;;;;-3.32;100.00;93974.69;5031698;28;20045;-59
2023/03/05 02:42:01;;;;;;;46.60;14.80;;;;;;;-3.44;100.00;93974.56;5016649;28;20291;-60
2023/03/05 02:44:28;;;;;;;45.63;14.85;;;;;;;-3.41;100.00;93971.25;5032327;28;20053;-59
2023/03/05 02:46:55;;;;;;;46.17;15.77;;;;;;;-3.45;100.00;93957.69;5020544;28;20136;-59
2023/03/05 02:49:21;;;;;;;43.00;14.67;;;;;;;-3.50;100.00;93951.72;5020762;28;20102;-58
2023/03/05 02:51:48;;;;;;;45.53;14.02;;;;;;;-3.48;100.00;93952.19;5031587;28;20106;-59
2023/03/05 02:54:15;;;;;;;44.85;14.57;;;;;;;-3.47;100.00;93946.50;5032016;28;20049;-59
2023/03/05 02:56:42;;;;;;;42.92;14.57;;;;;;;-3.49;100.00;93937.22;5031668;28;20045;-59
2023/03/05 02:59:09;;;;;;;44.35;14.23;;;;;;;-3.47;100.00;93937.69;5035909;28;20051;-59
2023/03/05 03:01:35;;;;;;;40.77;13.93;;;;;;;-3.47;100.00;93935.00;5040372;28;20042;-59
2023/03/05 03:04:02;;;;;;;36.85;12.82;;;;;;;-3.56;100.00;93929.69;5031620;28;20041;-59
2023/03/05 03:06:29;;;;;;;42.30;13.88;;;;;;;-3.57;100.00;93930.78;5031800;28;20053;-60
2023/03/05 03:08:56;;;;;;;38.03;13.68;;;;;;;-3.55;100.00;93917.06;5030205;28;20045;-60
2023/03/05 03:11:23;;;;;;;42.13;13.98;;;;;;;-3.56;100.00;93913.59;5031966;28;20049;-60
2023/03/05 03:13:49;;;;;;;44.70;15.40;;;;;;;-3.58;100.00;93917.69;5031411;28;20045;-61
2023/03/05 03:16:16;;;;;;;36.95;12.65;;;;;;;-3.57;100.00;93909.34;5031457;28;20044;-58
2023/03/05 03:18:46;;;;;;;35.75;12.27;;;;;;;-3.56;100.00;93918.97;5030900;28;20045;-59
2023/03/05 03:21:22;;;;;;;33.67;11.45;;;;;;;-3.53;100.00;93923.66;5029856;28;20055;-59
2023/03/05 03:23:50;;;;;;;34.15;11.18;;;;;;;-3.51;100.00;93920.66;5030939;28;20061;-59
2023/03/05 03:26:17;;;;;;;36.07;12.13;;;;;;;-3.73;100.00;93911.03;5031376;28;20289;-58
2023/03/05 03:28:44;;;;;;;41.50;13.27;;;;;;;-3.97;100.00;93927.72;5030938;28;20394;-59
2023/03/05 03:31:11;;;;;;;38.22;13.07;;;;;;;-4.11;100.00;93922.56;5031021;28;20041;-60
2023/03/05 03:33:38;;;;;;;48.13;14.85;;;;;;;-4.29;100.00;93928.00;5031050;28;20056;-58
2023/03/05 03:36:05;;;;;;;45.63;13.75;;;;;;;-4.22;100.00;93927.53;5031201;28;20107;-60
2023/03/05 03:38:32;;;;;;;44.47;13.83;;;;;;;-4.08;100.00;93927.31;5031135;28;20053;-58
2023/03/05 03:40:59;;;;;;;43.30;14.50;;;;;;;-4.01;100.00;93930.25;5030234;28;20401;-60
2023/03/05 03:43:25;;;;;;;50.85;16.10;;;;;;;-4.00;100.00;93939.88;5030329;28;20045;-59
2023/03/05 03:45:52;;;;;;;50.03;15.85;;;;;;;-3.83;100.00;93926.38;5030318;28;20045;-59
2023/03/05 03:48:19;;;;;;;42.17;14.30;;;;;;;-3.66;100.00;93924.72;5031157;28;20413;-58
2023/03/05 03:50:45;;;;;;;44.50;14.57;;;;;;;-3.50;100.00;93924.91;5030516;28;20047;-58
2023/03/05 03:53:13;;;;;;;38.90;13.85;;;;;;;-3.49;100.00;93913.84;5030931;28;20041;-59
2023/03/05 03:55:45;;;;;;;41.33;14.40;;;;;;;-3.50;100.00;93917.66;5030255;28;20053;-61
2023/03/05 03:58:12;;;;;;;38.45;13.70;;;;;;;-3.37;100.00;93917.72;5031023;28;20041;-58
2023/03/05 04:00:39;;;;;;;63.60;22.73;;;;;;;-3.29;100.00;93912.28;5030271;28;20036;-59
2023/03/05 04:03:07;;;;;;;55.07;21.13;;;;;;;-3.32;100.00;93914.84;5030616;28;20041;-60
2023/03/05 04:05:33;;;;;;;47.15;15.27;;;;;;;-3.62;100.00;93912.22;5030356;28;20422;-60
2023/03/05 04:08:00;;;;;;;59.17;18.42;;;;;;;-3.67;100.00;93915.09;5030604;28;20029;-60
2023/03/05 04:10:27;;;;;;;65.60;19.10;;;;;;;-3.56;100.00;93907.44;5030740;28;20095;-60
2023/03/05 04:12:53;;;;;;;64.20;19.45;;;;;;;-3.37;100.00;93910.44;5030069;28;20052;-60
2023/03/05 04:15:20;;;;;;;67.97;20.17;;;;;;;-3.28;100.00;93910.38;5029243;28;20042;-59
2023/03/05 04:17:47;;;;;;;95.25;30.83;;;;;;;-3.16;100.00;93905.06;5028800;28;20050;-59
2023/03/05 04:20:13;;;;;;;68.78;22.48;;;;;;;-3.15;100.00;93901.28;5029138;28;20038;-60
2023/03/05 04:22:40;;;;;;;50.22;16.30;;;;;;;-3.14;100.00;93889.44;5029914;28;20057;-60
2023/03/05 04:25:08;;;;;;;44.78;15.60;;;;;;;-3.11;100.00;93888.00;5030488;28;20051;-59
2023/03/05 04:27:36;;;;;;;42.17;14.67;;;;;;;-2.99;100.00;93888.03;5029975;28;20482;-58
2023/03/05 04:30:04;;;;;;;45.00;15.40;;;;;;;-2.94;100.00;93885.13;5030141;28;20041;-58
2023/03/05 04:32:30;;;;;;;40.25;13.73;;;;;;;-2.89;100.00;93879.56;5030280;28;20096;-59
2023/03/05 04:34:58;;;;;;;38.28;13.27;;;;;;;-2.81;100.00;93883.28;5029767;28;20749;-58
2023/03/05 04:37:25;;;;;;;35.92;13.52;;;;;;;-3.17;100.00;93878.56;5030251;28;20430;-60
2023/03/05 04:39:52;;;;;;;38.00;12.43;;;;;;;-3.41;100.00;93886.16;5021049;28;20056;-61
2023/03/05 04:42:19;;;;;;;37.10;11.95;;;;;;;-3.13;100.00;93882.94;5029975;28;20494;-60
2023/03/05 04:44:47;;;;;;;37.38;12.90;;;;;;;-3.14;100.00;93877.91;5029561;28;20053;-61
2023/03/05 04:47:15;;;;;;;39.80;13.13;;;;;;;-3.12;100.00;93889.91;5030094;28;20044;-60
2023/03/05 04:49:42;;;;;;;37.65;13.35;;;;;;;-2.99;100.00;93881.88;5029591;28;20045;-59
2023/03/05 04:52:10;;;;;;;44.13;13.47;;;;;;;-3.01;100.00;93882.22;5030093;28;20417;-58
2023/03/05 04:54:37;;;;;;;40.53;13.70;;;;;;;-2.89;100.00;93879.56;5029354;28;20103;-59
2023/03/05 04:57:05;;;;;;;41.90;13.88;;;;;;;-2.86;100.00;93880.78;5029822;28;20065;-59
2023/03/05 04:59:32;;;;;;;36.53;12.77;;;;;;;-2.83;100.00;93866.72;5029886;28;20060;-59
2023/03/05 05:01:58;;;;;;;37.85;12.13;;;;;;;-2.74;100.00;93872.00;5027403;28;20357;-59
2023/03/05 05:04:25;;;;;;;34.67;13.07;;;;;;;-2.68;100.00;93870.66;5024573;28;20465;-58
2023/03/05 05:06:57;;;;;;;42.88;14.10;;;;;;;-2.61;100.00;93863.63;5010673;28;22570;-58
2023/03/05 05:09:24;;;;;;;38.38;15.07;;;;;;;-2.63;100.00;93871.25;5026620;28;20041;-60
2023/03/05 05:11:51;;;;;;;41.55;14.93;;;;;;;-2.50;100.00;93866.66;5029222;28;20042;-60
2023/03/05 05:14:18;;;;;;;38.90;14.05;;;;;;;-2.56;100.00;93862.63;5030768;28;20057;-60
2023/03/05 05:16:45;;;;;;;42.30;14.30;;;;;;;-2.50;100.00;93858.59;5038986;28;20045;-58
2023/03/05 05:19:12;;;;;;;38.53;13.02;;;;;;;-2.52;100.00;93852.78;5029718;28;20122;-59
2023/03/05 05:21:39;;;;;;;36.40;12.23;;;;;;;-2.43;100.00;93842.72;5029213;28;20454;-59
2023/03/05 05:24:05;;;;;;;35.88;12.80;;;;;;;-2.61;100.00;93849.41;5029671;28;20045;-61
2023/03/05 05:26:32;;;;;;;37.88;12.98;;;;;;;-2.63;100.00;93846.28;5028049;28;20042;-57
2023/03/05 05:28:59;;;;;;;39.60;13.43;;;;;;;-2.94;100.00;93836.78;5029670;28;20050;-59
2023/03/05 05:31:26;;;;;;;38.17;12.88;;;;;;;-2.78;100.00;93838.84;5016230;28;20043;-59
2023/03/05 05:33:52;;;;;;;38.72;13.07;;;;;;;-2.72;100.00;93841.00;5027815;28;20469;-59
2023/03/05 05:36:21;;;;;;;42.15;13.07;;;;;;;-2.71;100.00;93841.78;5042705;28;20453;-59
2023/03/05 05:38:48;;;;;;;40.80;13.48;;;;;;;-2.56;100.00;93845.72;5027679;28;20046;-60
2023/03/05 05:41:17;;;;;;;37.53;13.50;;;;;;;-2.46;100.00;93846.06;5029371;28;20042;-59
2023/03/05 05:43:44;;;;;;;64.82;20.85;;;;;;;-2.44;100.00;93848.41;5015783;28;20045;-59
2023/03/05 05:46:14;;;;;;;67.28;22.63;;;;;;;-2.39;100.00;93842.03;5029801;28;20038;-60
2023/03/05 05:48:41;;;;;;;41.15;14.65;;;;;;;-2.33;100.00;93848.78;5028571;28;20041;-61
2023/03/05 05:51:11;;;;;;;38.38;12.85;;;;;;;-2.53;100.00;93840.47;5029621;28;20724;-59
2023/03/05 05:53:38;;;;;;;33.30;11.97;;;;;;;-2.48;100.00;93839.47;5028983;28;20064;-60
2023/03/05 05:56:06;;;;;;;35.85;12.35;;;;;;;-2.40;100.00;93838.56;5029384;28;20064;-60
2023/03/05 05:58:34;;;;;;;33.00;12.23;;;;;;;-2.28;100.00;93837.78;5028606;28;20041;-59
2023/03/05 06:01:01;;;;;;;38.63;13.30;;;;;;;-2.30;100.00;93840.81;5028979;28;20385;-60
2023/03/05 06:03:28;;;;;;;42.72;14.85;;;;;;;-2.43;100.00;93834.66;5029319;28;20053;-58
2023/03/05 06:05:55;;;;;;;40.27;15.50;;;;;;;-2.31;100.00;93835.78;5028731;28;20033;-58
2023/03/05 06:08:21;;;;;;;41.85;15.27;;;;;;;-2.41;100.00;93839.69;5032613;28;20375;-61
2023/03/05 06:10:54;;;;;;;42.20;15.10;;;;;;;-2.32;100.00;93844.97;5032501;28;20044;-60
2023/03/05 06:13:21;;;;;;;35.35;12.75;;;;;;;-2.18;100.00;93834.66;5032923;28;20498;-58
2023/03/05 06:16:03;;;;;;;36.45;13.70;;;;;;;-2.08;100.00;93836.09;5030965;28;20051;-58
2023/03/05 06:18:32;;;;;;;30.33;11.90;;;;;;;-2.06;100.00;93841.94;5032739;28;20060;-60
2023/03/05 06:21:01;;;;;;;40.80;13.80;;;;;;;-2.50;100.00;93839.00;5030391;28;20891;-60
2023/03/05 06:23:28;;;;;;;40.70;15.20;;;;;;;-2.11;100.00;93842.16;5032379;28;20045;-59
2023/03/05 06:25:58;;;;;;;39.30;14.27;;;;;;;-2.05;100.00;93840.81;5032159;28;20121;-59
2023/03/05 06:28:25;;;;;;;42.60;14.95;;;;;;;-1.93;100.00;93837.31;5031303;28;20393;-59
2023/03/05 06:31:06;;;;;;;38.53;14.33;;;;;;;-2.06;100.00;93837.31;5045361;28;20040;-59
2023/03/05 06:33:34;;;;;;;40.88;14.68;;;;;;;-1.78;100.00;93843.94;5032098;28;20057;-59
2023/03/05 06:36:03;;;;;;;36.60;13.70;;;;;;;-1.69;100.00;93833.81;5032203;28;20336;-58
2023/03/05 06:38:30;;;;;;;38.53;14.52;;;;;;;-1.66;100.00;93828.53;5032320;28;20053;-61
2023/03/05 06:41:00;;;;;;;38.45;13.95;;;;;;;-1.57;100.00;93841.06;5031666;28;20044;-61
2023/03/05 06:43:27;;;;;;;37.63;13.50;;;;;;;-1.95;100.00;93842.25;5031193;28;20405;-60
2023/03/05 06:46:09;;;;;;;39.55;13.88;;;;;;;-1.60;100.00;93839.84;5031659;28;20052;-60
2023/03/05 06:48:36;;;;;;;36.22;13.23;;;;;;;-1.44;100.00;93839.91;5032040;28;20045;-59
2023/03/05 06:51:03;;;;;;;34.38;12.73;;;;;;;-1.58;100.00;93839.50;5030542;28;20493;-61
2023/03/05 06:53:30;;;;;;;34.80;13.13;;;;;;;-1.48;100.00;93839.03;5031979;28;20396;-59
2023/03/05 06:56:00;;;;;;;35.87;13.57;;;;;;;-1.41;100.00;93833.84;5031523;28;20045;-60
2023/03/05 06:58:27;;;;;;;35.90;13.30;;;;;;;-1.33;100.00;93841.00;5032156;28;20367;-60
2023/03/05 07:00:54;;;;;;;36.67;13.38;;;;;;;-1.22;100.00;93835.91;5024882;28;20123;-60
2023/03/05 07:03:20;;;;;;;43.65;16.67;;;;;;;-1.56;100.00;93838.03;5013079;28;20056;-60
2023/03/05 07:05:47;;;;;;;42.15;16.70;;;;;;;-1.49;100.00;93834.75;5028711;28;20049;-59
2023/03/05 07:08:14;;;;;;;43.03;15.73;;;;;;;-1.54;100.00;93832.31;5031575;28;20045;-60
2023/03/05 07:10:42;;;;;;;40.50;15.20;;;;;;;-1.41;100.00;93833.84;5031158;28;20053;-59
2023/03/05 07:13:09;;;;;;;39.10;15.05;;;;;;;-1.48;100.00;93830.97;5031906;28;20379;-62
2023/03/05 07:15:38;;;;;;;35.58;13.73;;;;;;;-1.68;100.00;93825.41;5029798;28;20041;-60
2023/03/05 07:18:05;;;;;;;40.33;14.60;;;;;;;-1.65;100.00;93827.44;5030679;28;20041;-60
2023/03/05 07:20:36;;;;;;;41.60;14.63;;;;;;;-1.59;100.00;93817.19;5031490;28;20409;-59
2023/03/05 07:23:03;;;;;;;40.50;14.40;;;;;;;-1.45;100.00;93817.63;5030524;28;20789;-60
2023/03/05 07:25:30;;;;;;;41.70;16.80;;;;;;;-1.33;100.00;93813.28;5031413;28;20052;-60
2023/03/05 07:27:57;;;;;;;41.58;14.77;;;;;;;-1.26;100.00;93816.19;5030901;28;20087;-60
2023/03/05 07:30:24;;;;;;;40.25;14.60;;;;;;;-1.19;100.00;93815.59;5030985;28;20106;-60
2023/03/05 07:32:50;;;;;;;38.90;14.50;;;;;;;-1.03;100.00;93819.09;5030881;28;20376;-59
2023/03/05 07:35:17;;;;;;;35.10;13.80;;;;;;;-1.05;100.00;93814.09;5031017;28;20358;-61
2023/03/05 07:37:44;;;;;;;37.05;14.13;;;;;;;-0.93;100.00;93812.44;5030480;28;20440;-60
2023/03/05 07:40:11;;;;;;;37.45;14.60;;;;;;;-1.01;100.00;93809.56;5031312;28;20045;-62
2023/03/05 07:42:37;;;;;;;37.97;15.15;;;;;;;-0.98;100.00;93802.72;5030794;28;20056;-61
2023/03/05 07:45:05;;;;;;;37.33;14.13;;;;;;;-0.78;100.00;93813.63;5031238;28;20042;-59
2023/03/05 07:47:32;;;;;;;34.42;14.05;;;;;;;-0.66;100.00;93805.44;5031102;28;20045;-60
2023/03/05 07:49:59;;;;;;;91.15;34.25;;;;;;;-0.57;100.00;93806.03;5030331;28;20441;-61
2023/03/05 07:52:25;;;;;;;110.78;42.38;;;;;;;-0.48;100.00;93795.88;5031010;28;20052;-60
2023/03/05 07:54:52;;;;;;;75.50;30.85;;;;;;;-0.47;100.00;93802.06;5030182;28;20375;-60
2023/03/05 07:57:19;;;;;;;53.70;21.47;;;;;;;-0.55;100.00;93798.41;5030967;28;20045;-60
2023/03/05 07:59:45;;;;;;;46.78;17.67;;;;;;;-0.43;100.00;93802.91;5030237;28;20037;-60
2023/03/05 08:02:13;;;;;;;41.60;16.33;;;;;;;-0.46;100.00;93801.72;5014591;28;20057;-59
2023/03/05 08:04:41;;;;;;;65.55;26.85;;;;;;;-0.31;100.00;93796.66;5018475;28;20444;-60
2023/03/05 08:07:08;;;;;;;44.70;17.65;;;;;;;-0.45;100.00;93803.25;5030661;28;20037;-62
2023/03/05 08:09:34;;;;;;;41.40;16.07;;;;;;;-0.36;100.00;93799.59;5030205;28;20045;-61
2023/03/05 08:12:01;;;;;;;44.72;17.38;;;;;;;-0.30;100.00;93803.59;5029185;28;20509;-60
2023/03/05 08:14:27;;;;;;;50.10;21.40;;;;;;;-0.21;100.00;93801.50;5030517;28;20508;-60
2023/03/05 08:16:54;;;;;;;83.47;34.92;;;;;;;-0.28;100.00;93799.44;5028763;28;20037;-61
2023/03/05 08:19:21;;;;;;;71.63;30.42;;;;;;;-0.11;100.00;93795.59;5030300;28;20060;-60
2023/03/05 08:21:48;;;;;;;64.70;27.20;;;;;;;-0.05;100.00;93796.09;5030098;28;20051;-61
2023/03/05 08:24:15;;;;;;;65.65;26.77;;;;;;;0.01;100.00;93792.00;5030109;28;20049;-61
2023/03/05 08:26:41;;;;;;;61.85;26.10;;;;;;;0.02;100.00;93790.88;5029914;28;20045;-60
2023/03/05 08:29:09;;;;;;;51.00;21.17;;;;;;;0.05;100.00;93787.47;5029555;28;20033;-60
2023/03/05 08:31:37;;;;;;;43.90;17.92;;;;;;;0.10;100.00;93781.00;5029855;28;20045;-61
2023/03/05 08:34:04;;;;;;;37.67;14.47;;;;;;;0.06;100.00;93785.53;5027157;28;20041;-62
2023/03/05 08:36:31;;;;;;;38.67;15.00;;;;;;;-0.21;100.00;93782.63;5017087;28;20440;-60
2023/03/05 08:38:58;;;;;;;41.60;16.00;;;;;;;-0.18;100.00;93781.94;5022154;28;20542;-61
2023/03/05 08:41:25;;;;;;;41.33;15.75;;;;;;;-0.25;100.00;93784.47;5029869;28;20430;-60
2023/03/05 08:43:52;;;;;;;42.65;17.10;;;;;;;-0.13;100.00;93783.59;5029591;28;20045;-59
2023/03/05 08:46:19;;;;;;;43.00;16.80;;;;;;;-0.10;100.00;93780.97;5030036;28;20102;-59
2023/03/05 08:48:46;;;;;;;38.78;14.43;;;;;;;0.11;100.00;93783.34;5029482;28;20540;-62
2023/03/05 08:51:15;;;;;;;40.97;14.57;;;;;;;-0.07;100.00;93780.25;5029845;28;20041;-61
2023/03/05 08:53:44;;;;;;;38.30;14.10;;;;;;;-0.24;100.00;93781.44;5029448;28;20079;-60
2023/03/05 08:56:11;;;;;;;38.40;14.48;;;;;;;-0.13;100.00;93783.59;5028479;28;20053;-62
2023/03/05 08:58:38;;;;;;;44.23;15.43;;;;;;;0.09;100.00;93769.44;5029547;28;20042;-62
2023/03/05 09:01:05;;;;;;;36.30;14.43;;;;;;;0.05;100.00;93773.19;5029775;28;20051;-60
2023/03/05 09:03:32;;;;;;;36.00;14.10;;;;;;;0.17;100.00;93771.16;5030116;28;20393;-62
2023/03/05 09:06:04;;;;;;;39.75;15.20;;;;;;;0.37;100.00;93769.25;5027658;28;20909;-59
2023/03/05 09:08:31;;;;;;;43.13;16.83;;;;;;;0.57;100.00;93774.69;5029889;28;20401;-60
2023/03/05 09:11:04;;;;;;;50.07;19.87;;;;;;;0.37;100.00;93771.19;5029106;28;22543;-62
2023/03/05 09:13:32;;;;;;;48.75;19.08;;;;;;;0.50;100.00;93769.88;5043445;28;20053;-60
2023/03/05 09:16:02;;;;;;;48.25;19.60;;;;;;;0.86;100.00;93769.81;5028793;28;20597;-60
2023/03/05 09:18:29;;;;;;;47.17;18.50;;;;;;;1.05;100.00;93759.00;5029388;28;20113;-60
2023/03/05 09:20:56;;;;;;;45.20;19.52;;;;;;;1.26;100.00;93757.81;5029489;28;20037;-62
2023/03/05 09:23:23;;;;;;;47.27;19.60;;;;;;;1.42;100.00;93765.78;5028154;28;20071;-60
2023/03/05 09:25:50;;;;;;;50.00;20.70;;;;;;;1.50;100.00;93767.47;5034205;28;20067;-62
2023/03/05 09:28:17;;;;;;;46.30;19.80;;;;;;;1.52;100.00;93765.19;5036303;28;20053;-63
2023/03/05 09:30:44;;;;;;;45.28;19.20;;;;;;;1.50;100.00;93753.94;5013597;28;20389;-60
2023/03/05 09:33:10;;;;;;;43.38;19.10;;;;;;;1.43;100.00;93743.81;5029456;28;20041;-60
2023/03/05 09:35:37;;;;;;;42.47;18.33;;;;;;;1.42;100.00;93747.63;5029050;28;20037;-61
2023/03/05 09:38:04;;;;;;;38.03;16.63;;;;;;;1.13;100.00;93747.16;5029158;28;20102;-60
2023/03/05 09:40:42;;;;;;;41.35;18.13;;;;;;;1.54;100.00;93747.44;5028105;28;20498;-62
2023/03/05 09:43:18;;;;;;;43.45;16.88;;;;;;;1.22;100.00;93744.22;5032207;28;20744;-60
2023/03/05 09:46:09;;;;;;;44.00;18.65;;;;;;;1.55;100.00;93740.09;5025628;28;20392;-63
2023/03/05 09:48:45;;;;;;;40.03;16.67;;;;;;;1.79;100.00;93744.34;5013140;28;20126;-62
2023/03/05 09:51:19;;;;;;;37.03;15.30;;;;;;;1.79;100.00;93742.44;5030515;28;20041;-63
2023/03/05 09:53:57;;;;;;;37.45;16.50;;;;;;;1.88;100.00;93744.88;5032882;28;20044;-60
2023/03/05 09:56:39;;;;;;;36.63;16.13;;;;;;;2.09;100.00;93746.31;5033168;28;20046;-62
2023/03/05 09:59:18;;;;;;;38.38;15.38;;;;;;;1.84;100.00;93735.16;5032198;28;21492;-61
2023/03/05 10:01:46;;;;;;;37.27;15.27;;;;;;;2.22;100.00;93744.97;5040042;28;20057;-59
2023/03/05 10:04:33;;;;;;;35.90;14.38;;;;;;;1.94;100.00;93735.31;5038003;28;20072;-59
2023/03/05 10:07:24;;;;;;;34.47;14.07;;;;;;;1.80;100.00;93730.47;5032147;28;20744;-59
2023/03/05 10:10:00;;;;;;;32.50;14.20;;;;;;;1.87;100.00;93726.28;5031229;28;20083;-58
2023/03/05 10:12:41;;;;;;;33.15;14.35;;;;;;;2.15;100.00;93728.63;5033160;28;20057;-59
2023/03/05 10:15:12;;;;;;;32.23;13.30;;;;;;;1.97;100.00;93731.88;5030729;28;20475;-61
2023/03/05 10:17:54;;;;;;;32.30;12.73;;;;;;;1.94;100.00;93735.31;5032542;28;20233;-62
2023/03/05 10:20:40;;;;;;;27.83;11.90;;;;;;;1.67;100.00;93729.13;5019957;28;20046;-61
2023/03/05 10:23:06;;;;;;;27.92;12.00;;;;;;;1.06;100.00;93730.03;5031820;28;20642;-58
2023/03/05 10:26:02;;;;;;;28.10;11.25;;;;;;;1.25;100.00;93721.09;5038124;28;20049;-60
2023/03/05 10:28:56;;;;;;;26.73;10.80;;;;;;;1.37;100.00;93712.81;5035422;28;20056;-60
2023/03/05 10:31:56;;;;;;;28.27;12.38;;;;;;;0.76;100.00;93715.22;5031413;28;20603;-61
2023/03/05 10:34:41;;;;;;;33.13;13.70;;;;;;;0.56;100.00;93709.09;5022173;28;20065;-60
2023/03/05 10:37:30;;;;;;;34.40;13.63;;;;;;;0.65;100.00;93713.50;5031315;28;21553;-61
2023/03/05 10:40:09;;;;;;;29.85;11.98;;;;;;;1.13;100.00;93708.56;5031513;28;20037;-60
2023/03/05 10:42:47;;;;;;;32.70;12.37;;;;;;;1.56;100.00;93703.81;5031763;28;20049;-60
2023/03/05 10:45:30;;;;;;;28.98;11.68;;;;;;;1.88;100.00;93703.50;5028570;28;20096;-59
2023/03/05 10:48:15;;;;;;;29.95;11.98;;;;;;;2.07;100.00;93694.47;5012003;28;20383;-60
2023/03/05 10:50:47;;;;;;;26.73;11.15;;;;;;;2.28;100.00;93692.06;5025016;28;20057;-62
2023/03/05 10:53:38;;;;;;;28.30;11.60;;;;;;;2.15;100.00;93694.22;5044061;28;20106;-60
2023/03/05 10:56:05;;;;;;;24.67;9.80;;;;;;;2.02;100.00;93698.28;5029483;28;20033;-60
2023/03/05 10:58:32;;;;;;;26.95;10.52;;;;;;;1.79;100.00;93684.81;5032042;28;20334;-61
2023/03/05 11:01:05;;;;;;;31.20;11.35;;;;;;;2.33;100.00;93689.00;5029558;28;20046;-60
2023/03/05 11:03:55;;;;;;;28.35;11.85;;;;;;;1.46;100.00;93686.28;5031944;28;20055;-59
2023/03/05 11:06:40;;;;;;;26.85;10.77;;;;;;;1.84;100.00;93681.03;5029602;28;21612;-60
2023/03/05 11:09:17;;;;;;;27.37;11.27;;;;;;;2.13;100.00;93683.00;5031018;28;21666;-60
2023/03/05 11:12:11;;;;;;;26.48;10.93;;;;;;;1.70;100.00;93676.22;5031122;28;20041;-60
2023/03/05 11:15:03;;;;;;;29.65;11.98;;;;;;;1.99;100.00;93675.47;5044367;28;20488;-59
2023/03/05 11:17:37;;;;;;;24.20;9.82;;;;;;;2.49;100.00;93667.13;5031480;28;20091;-60
2023/03/05 11:20:25;;;;;;;26.80;11.25;;;;;;;1.98;100.00;93662.28;5030531;28;21741;-59
2023/03/05 11:23:10;;;;;;;27.07;10.87;;;;;;;2.13;100.00;93663.22;5031101;28;20391;-59